sensor_id;sensor_type;location;lat;lon;timestamp;temperature;humidity
7704;DHT22;3894;49.700;10.770;2022-09-09T00:10:28;14.70;99.90
7704;DHT22;3894;49.700;10.770;2022-09-09T00:15:57;14.80;99.90
7704;DHT22;3894;49.700;10.770;2022-09-09T00:21:36;14.80;99.90
7704;DHT22;3894;49.700;10.770;2022-09-09T00:24:26;14.80;99.90
7704;DHT22;3894;49.700;10.770;2022-09-09T00:27:08;14.90;99.90
7704;DHT22;3894;49.700;10.770;2022-09-09T00:29:53;14.90;99.90
7704;DHT22;3894;49.700;10.770;2022-09-09T00:32:20;14.90;99.90
7704;DHT22;3894;49.700;10.770;2022-09-09T00:34:53;14.90;99.90
7704;DHT22;3894;49.700;10.770;2022-09-09T00:37:22;14.90;99.90
7704;DHT22;3894;49.700;10.770;2022-09-09T00:39:52;14.90;99.90
7704;DHT22;3894;49.700;10.770;2022-09-09T00:47:45;14.70;99.90
7704;DHT22;3894;49.700;10.770;2022-09-09T00:50:49;14.70;99.90
7704;DHT22;3894;49.700;10.770;2022-09-09T00:53:33;14.70;99.90
7704;DHT22;3894;49.700;10.770;2022-09-09T00:56:12;14.70;99.90
7704;DHT22;3894;49.700;10.770;2022-09-09T00:58:39;14.70;99.90
7704;DHT22;3894;49.700;10.770;2022-09-09T01:01:10;14.70;99.90
7704;DHT22;3894;49.700;10.770;2022-09-09T01:06:30;14.70;99.90
7704;DHT22;3894;49.700;10.770;2022-09-09T01:14:40;14.70;99.90
7704;DHT22;3894;49.700;10.770;2022-09-09T01:17:33;14.70;99.90
7704;DHT22;3894;49.700;10.770;2022-09-09T01:20:08;14.60;99.90
7704;DHT22;3894;49.700;10.770;2022-09-09T01:23:12;14.50;99.90
7704;DHT22;3894;49.700;10.770;2022-09-09T01:28:49;14.50;99.90
7704;DHT22;3894;49.700;10.770;2022-09-09T01:31:22;14.50;99.90
7704;DHT22;3894;49.700;10.770;2022-09-09T01:33:48;14.50;99.90
7704;DHT22;3894;49.700;10.770;2022-09-09T01:39:12;14.30;99.90
7704;DHT22;3894;49.700;10.770;2022-09-09T01:41:38;14.20;99.90
7704;DHT22;3894;49.700;10.770;2022-09-09T01:44:19;14.10;99.90
7704;DHT22;3894;49.700;10.770;2022-09-09T01:46:45;14.10;99.90
7704;DHT22;3894;49.700;10.770;2022-09-09T01:49:11;14.10;99.90
7704;DHT22;3894;49.700;10.770;2022-09-09T01:51:39;14.20;99.90
7704;DHT22;3894;49.700;10.770;2022-09-09T01:54:06;14.30;99.90
7704;DHT22;3894;49.700;10.770;2022-09-09T01:56:40;14.40;99.90
7704;DHT22;3894;49.700;10.770;2022-09-09T02:02:13;14.30;99.90
7704;DHT22;3894;49.700;10.770;2022-09-09T02:04:48;14.40;99.90
7704;DHT22;3894;49.700;10.770;2022-09-09T02:13:24;14.50;99.90
7704;DHT22;3894;49.700;10.770;2022-09-09T02:16:42;14.50;99.90
7704;DHT22;3894;49.700;10.770;2022-09-09T02:19:30;14.50;99.90
7704;DHT22;3894;49.700;10.770;2022-09-09T02:22:18;14.50;99.90
7704;DHT22;3894;49.700;10.770;2022-09-09T02:24:51;14.60;99.90
7704;DHT22;3894;49.700;10.770;2022-09-09T02:27:20;14.60;99.90
7704;DHT22;3894;49.700;10.770;2022-09-09T02:29:49;14.60;99.90
7704;DHT22;3894;49.700;10.770;2022-09-09T02:32:20;14.60;99.90
7704;DHT22;3894;49.700;10.770;2022-09-09T02:35:23;14.60;99.90
7704;DHT22;3894;49.700;10.770;2022-09-09T02:37:47;14.60;99.90
7704;DHT22;3894;49.700;10.770;2022-09-09T02:40:18;14.70;99.90
7704;DHT22;3894;49.700;10.770;2022-09-09T02:42:46;14.70;99.90
7704;DHT22;3894;49.700;10.770;2022-09-09T02:45:14;14.70;99.90
7704;DHT22;3894;49.700;10.770;2022-09-09T02:47:47;14.70;99.90
7704;DHT22;3894;49.700;10.770;2022-09-09T02:55:25;14.70;99.90
7704;DHT22;3894;49.700;10.770;2022-09-09T02:57:55;14.70;99.90
7704;DHT22;3894;49.700;10.770;2022-09-09T03:00:24;14.80;99.90
7704;DHT22;3894;49.700;10.770;2022-09-09T03:02:50;14.80;99.90
7704;DHT22;3894;49.700;10.770;2022-09-09T03:05:16;14.80;99.90
7704;DHT22;3894;49.700;10.770;2022-09-09T03:07:42;14.80;99.90
7704;DHT22;3894;49.700;10.770;2022-09-09T03:10:08;14.70;99.90
7704;DHT22;3894;49.700;10.770;2022-09-09T03:12:34;14.80;99.90
7704;DHT22;3894;49.700;10.770;2022-09-09T03:14:59;14.80;99.90
7704;DHT22;3894;49.700;10.770;2022-09-09T03:17:25;14.80;99.90
7704;DHT22;3894;49.700;10.770;2022-09-09T03:19:59;14.80;99.90
7704;DHT22;3894;49.700;10.770;2022-09-09T03:22:25;14.80;99.90
7704;DHT22;3894;49.700;10.770;2022-09-09T03:24:51;14.80;99.90
7704;DHT22;3894;49.700;10.770;2022-09-09T03:27:23;14.80;99.90
7704;DHT22;3894;49.700;10.770;2022-09-09T03:29:48;14.80;99.90
7704;DHT22;3894;49.700;10.770;2022-09-09T03:32:20;14.80;99.90
7704;DHT22;3894;49.700;10.770;2022-09-09T03:34:48;14.70;99.90
7704;DHT22;3894;49.700;10.770;2022-09-09T03:37:16;14.70;99.90
7704;DHT22;3894;49.700;10.770;2022-09-09T03:39:43;14.70;99.90
7704;DHT22;3894;49.700;10.770;2022-09-09T03:42:12;14.70;99.90
7704;DHT22;3894;49.700;10.770;2022-09-09T03:44:42;14.70;99.90
7704;DHT22;3894;49.700;10.770;2022-09-09T03:47:08;14.70;99.90
7704;DHT22;3894;49.700;10.770;2022-09-09T03:49:34;14.60;99.90
7704;DHT22;3894;49.700;10.770;2022-09-09T03:51:59;14.60;99.90
7704;DHT22;3894;49.700;10.770;2022-09-09T03:54:26;14.60;99.90
7704;DHT22;3894;49.700;10.770;2022-09-09T03:56:58;14.60;99.90
7704;DHT22;3894;49.700;10.770;2022-09-09T03:59:26;14.60;99.90
7704;DHT22;3894;49.700;10.770;2022-09-09T04:01:52;14.70;99.90
7704;DHT22;3894;49.700;10.770;2022-09-09T04:04:18;14.70;99.90
7704;DHT22;3894;49.700;10.770;2022-09-09T04:06:45;14.70;99.90
7704;DHT22;3894;49.700;10.770;2022-09-09T04:09:11;14.70;99.90
7704;DHT22;3894;49.700;10.770;2022-09-09T04:11:37;14.70;99.90
7704;DHT22;3894;49.700;10.770;2022-09-09T04:14:03;14.70;99.90
7704;DHT22;3894;49.700;10.770;2022-09-09T04:16:34;14.70;99.90
7704;DHT22;3894;49.700;10.770;2022-09-09T04:19:07;14.80;99.90
7704;DHT22;3894;49.700;10.770;2022-09-09T04:21:39;14.80;99.90
7704;DHT22;3894;49.700;10.770;2022-09-09T04:24:06;14.70;99.90
7704;DHT22;3894;49.700;10.770;2022-09-09T04:26:33;14.70;99.90
7704;DHT22;3894;49.700;10.770;2022-09-09T04:28:59;14.70;99.90
7704;DHT22;3894;49.700;10.770;2022-09-09T04:31:24;14.70;99.90
7704;DHT22;3894;49.700;10.770;2022-09-09T04:33:51;14.70;99.90
7704;DHT22;3894;49.700;10.770;2022-09-09T04:36:18;14.80;99.90
7704;DHT22;3894;49.700;10.770;2022-09-09T04:38:45;14.80;99.90
7704;DHT22;3894;49.700;10.770;2022-09-09T04:41:11;14.80;99.90
7704;DHT22;3894;49.700;10.770;2022-09-09T04:43:38;14.80;99.90
7704;DHT22;3894;49.700;10.770;2022-09-09T04:46:05;14.80;99.90
7704;DHT22;3894;49.700;10.770;2022-09-09T04:48:31;14.80;99.90
7704;DHT22;3894;49.700;10.770;2022-09-09T04:50:58;14.80;99.90
7704;DHT22;3894;49.700;10.770;2022-09-09T04:53:24;14.80;99.90
7704;DHT22;3894;49.700;10.770;2022-09-09T04:55:51;14.80;99.90
7704;DHT22;3894;49.700;10.770;2022-09-09T04:58:17;14.80;99.90
7704;DHT22;3894;49.700;10.770;2022-09-09T05:00:43;14.90;99.90
7704;DHT22;3894;49.700;10.770;2022-09-09T05:03:09;14.90;99.90
7704;DHT22;3894;49.700;10.770;2022-09-09T05:05:35;14.90;99.90
7704;DHT22;3894;49.700;10.770;2022-09-09T05:08:02;14.90;99.90
7704;DHT22;3894;49.700;10.770;2022-09-09T05:10:28;14.90;99.90
7704;DHT22;3894;49.700;10.770;2022-09-09T05:12:57;14.90;99.90
7704;DHT22;3894;49.700;10.770;2022-09-09T05:15:23;15.00;99.90
7704;DHT22;3894;49.700;10.770;2022-09-09T05:17:48;15.00;99.90
7704;DHT22;3894;49.700;10.770;2022-09-09T05:20:20;15.00;99.90
7704;DHT22;3894;49.700;10.770;2022-09-09T05:22:46;15.00;99.90
7704;DHT22;3894;49.700;10.770;2022-09-09T05:25:12;15.00;99.90
7704;DHT22;3894;49.700;10.770;2022-09-09T05:27:38;14.90;99.90
7704;DHT22;3894;49.700;10.770;2022-09-09T05:30:09;14.90;99.90
7704;DHT22;3894;49.700;10.770;2022-09-09T05:32:35;14.90;99.90
7704;DHT22;3894;49.700;10.770;2022-09-09T05:35:01;15.00;99.90
7704;DHT22;3894;49.700;10.770;2022-09-09T05:37:27;14.90;99.90
7704;DHT22;3894;49.700;10.770;2022-09-09T05:39:55;15.00;99.90
7704;DHT22;3894;49.700;10.770;2022-09-09T05:42:21;14.90;99.90
7704;DHT22;3894;49.700;10.770;2022-09-09T05:44:47;14.90;99.90
7704;DHT22;3894;49.700;10.770;2022-09-09T05:47:13;14.90;99.90
7704;DHT22;3894;49.700;10.770;2022-09-09T05:49:46;14.90;99.90
7704;DHT22;3894;49.700;10.770;2022-09-09T05:52:12;14.90;99.90
7704;DHT22;3894;49.700;10.770;2022-09-09T05:54:37;14.90;99.90
7704;DHT22;3894;49.700;10.770;2022-09-09T05:57:09;14.90;99.90
7704;DHT22;3894;49.700;10.770;2022-09-09T05:59:34;14.90;99.90
7704;DHT22;3894;49.700;10.770;2022-09-09T06:02:00;14.90;99.90
7704;DHT22;3894;49.700;10.770;2022-09-09T06:04:25;15.00;99.90
7704;DHT22;3894;49.700;10.770;2022-09-09T06:06:51;15.10;99.90
7704;DHT22;3894;49.700;10.770;2022-09-09T06:09:17;15.10;99.90
7704;DHT22;3894;49.700;10.770;2022-09-09T06:11:43;15.20;99.90
7704;DHT22;3894;49.700;10.770;2022-09-09T06:14:12;15.30;99.90
7704;DHT22;3894;49.700;10.770;2022-09-09T06:16:37;15.40;99.90
7704;DHT22;3894;49.700;10.770;2022-09-09T06:19:03;15.50;99.90
7704;DHT22;3894;49.700;10.770;2022-09-09T06:21:31;15.60;99.90
7704;DHT22;3894;49.700;10.770;2022-09-09T06:23:58;15.70;99.90
7704;DHT22;3894;49.700;10.770;2022-09-09T06:26:34;15.70;99.90
7704;DHT22;3894;49.700;10.770;2022-09-09T06:29:01;15.80;99.90
7704;DHT22;3894;49.700;10.770;2022-09-09T06:31:30;15.80;99.90
7704;DHT22;3894;49.700;10.770;2022-09-09T06:33:59;15.90;99.90
7704;DHT22;3894;49.700;10.770;2022-09-09T06:36:27;16.10;99.90
7704;DHT22;3894;49.700;10.770;2022-09-09T06:38:54;16.30;99.90
7704;DHT22;3894;49.700;10.770;2022-09-09T06:41:21;16.10;99.90
7704;DHT22;3894;49.700;10.770;2022-09-09T06:43:48;15.90;99.90
7704;DHT22;3894;49.700;10.770;2022-09-09T06:46:14;16.10;99.90
7704;DHT22;3894;49.700;10.770;2022-09-09T06:48:41;16.70;99.90
7704;DHT22;3894;49.700;10.770;2022-09-09T06:51:12;16.70;99.90
7704;DHT22;3894;49.700;10.770;2022-09-09T06:53:40;16.30;99.90
7704;DHT22;3894;49.700;10.770;2022-09-09T06:58:44;16.10;99.90
7704;DHT22;3894;49.700;10.770;2022-09-09T07:01:22;16.20;99.90
7704;DHT22;3894;49.700;10.770;2022-09-09T07:03:56;16.20;99.90
7704;DHT22;3894;49.700;10.770;2022-09-09T07:06:40;16.30;99.90
7704;DHT22;3894;49.700;10.770;2022-09-09T07:09:13;16.40;99.90
7704;DHT22;3894;49.700;10.770;2022-09-09T07:11:48;16.60;99.90
7704;DHT22;3894;49.700;10.770;2022-09-09T07:14:16;16.60;99.90
7704;DHT22;3894;49.700;10.770;2022-09-09T07:16:43;16.70;99.90
7704;DHT22;3894;49.700;10.770;2022-09-09T07:19:10;16.70;99.90
7704;DHT22;3894;49.700;10.770;2022-09-09T07:21:36;16.90;99.90
7704;DHT22;3894;49.700;10.770;2022-09-09T07:24:01;17.00;99.90
7704;DHT22;3894;49.700;10.770;2022-09-09T07:26:29;17.10;99.90
7704;DHT22;3894;49.700;10.770;2022-09-09T07:28:58;17.20;99.90
7704;DHT22;3894;49.700;10.770;2022-09-09T07:31:27;17.20;99.90
7704;DHT22;3894;49.700;10.770;2022-09-09T07:33:53;17.20;99.90
7704;DHT22;3894;49.700;10.770;2022-09-09T07:36:24;17.30;99.90
7704;DHT22;3894;49.700;10.770;2022-09-09T07:38:56;17.50;99.90
7704;DHT22;3894;49.700;10.770;2022-09-09T07:41:38;17.70;99.90
7704;DHT22;3894;49.700;10.770;2022-09-09T07:44:11;17.70;99.90
7704;DHT22;3894;49.700;10.770;2022-09-09T07:46:38;17.60;99.90
7704;DHT22;3894;49.700;10.770;2022-09-09T07:49:07;17.50;99.90
7704;DHT22;3894;49.700;10.770;2022-09-09T07:51:36;17.30;99.90
7704;DHT22;3894;49.700;10.770;2022-09-09T07:54:16;17.30;99.90
7704;DHT22;3894;49.700;10.770;2022-09-09T07:56:45;17.50;99.90
7704;DHT22;3894;49.700;10.770;2022-09-09T07:59:10;17.60;99.90
7704;DHT22;3894;49.700;10.770;2022-09-09T08:01:42;18.00;99.90
7704;DHT22;3894;49.700;10.770;2022-09-09T08:04:13;18.30;99.90
7704;DHT22;3894;49.700;10.770;2022-09-09T08:06:45;18.20;99.90
7704;DHT22;3894;49.700;10.770;2022-09-09T08:09:12;18.20;99.90
7704;DHT22;3894;49.700;10.770;2022-09-09T08:11:38;18.30;99.90
7704;DHT22;3894;49.700;10.770;2022-09-09T08:14:04;18.40;99.90
7704;DHT22;3894;49.700;10.770;2022-09-09T08:16:32;18.60;99.90
7704;DHT22;3894;49.700;10.770;2022-09-09T08:19:02;19.10;99.90
7704;DHT22;3894;49.700;10.770;2022-09-09T08:21:36;19.90;99.90
7704;DHT22;3894;49.700;10.770;2022-09-09T08:24:03;20.30;99.90
7704;DHT22;3894;49.700;10.770;2022-09-09T08:26:35;20.50;99.90
7704;DHT22;3894;49.700;10.770;2022-09-09T08:29:03;20.30;99.90
7704;DHT22;3894;49.700;10.770;2022-09-09T08:31:53;20.40;99.90
7704;DHT22;3894;49.700;10.770;2022-09-09T08:34:26;20.50;99.90
7704;DHT22;3894;49.700;10.770;2022-09-09T08:36:53;20.40;99.90
7704;DHT22;3894;49.700;10.770;2022-09-09T08:39:25;20.10;99.90
7704;DHT22;3894;49.700;10.770;2022-09-09T08:42:04;20.20;99.90
7704;DHT22;3894;49.700;10.770;2022-09-09T08:47:27;20.20;99.90
7704;DHT22;3894;49.700;10.770;2022-09-09T08:55:41;21.10;99.90
7704;DHT22;3894;49.700;10.770;2022-09-09T08:58:14;21.30;99.90
7704;DHT22;3894;49.700;10.770;2022-09-09T09:06:54;21.10;99.90
7704;DHT22;3894;49.700;10.770;2022-09-09T09:09:53;21.10;99.90
7704;DHT22;3894;49.700;10.770;2022-09-09T09:12:21;21.40;99.90
7704;DHT22;3894;49.700;10.770;2022-09-09T09:14:49;21.50;99.90
7704;DHT22;3894;49.700;10.770;2022-09-09T09:17:23;21.80;99.90
7704;DHT22;3894;49.700;10.770;2022-09-09T09:19:50;21.20;99.90
7704;DHT22;3894;49.700;10.770;2022-09-09T09:22:22;21.00;99.90
7704;DHT22;3894;49.700;10.770;2022-09-09T09:27:34;21.20;99.90
7704;DHT22;3894;49.700;10.770;2022-09-09T09:30:15;21.40;99.90
7704;DHT22;3894;49.700;10.770;2022-09-09T09:35:16;21.00;99.90
7704;DHT22;3894;49.700;10.770;2022-09-09T09:37:45;20.90;99.90
7704;DHT22;3894;49.700;10.770;2022-09-09T09:40:22;21.00;99.90
7704;DHT22;3894;49.700;10.770;2022-09-09T09:42:57;21.30;99.90
7704;DHT22;3894;49.700;10.770;2022-09-09T09:45:42;21.20;99.90
7704;DHT22;3894;49.700;10.770;2022-09-09T09:48:12;21.20;99.90
7704;DHT22;3894;49.700;10.770;2022-09-09T09:51:16;21.30;99.90
7704;DHT22;3894;49.700;10.770;2022-09-09T09:53:42;21.40;99.90
7704;DHT22;3894;49.700;10.770;2022-09-09T09:56:13;22.00;99.90
7704;DHT22;3894;49.700;10.770;2022-09-09T09:58:54;22.40;99.90
7704;DHT22;3894;49.700;10.770;2022-09-09T10:01:31;22.00;99.90
7704;DHT22;3894;49.700;10.770;2022-09-09T10:04:14;22.20;99.90
7704;DHT22;3894;49.700;10.770;2022-09-09T10:06:41;22.40;99.90
7704;DHT22;3894;49.700;10.770;2022-09-09T10:09:27;22.80;99.90
7704;DHT22;3894;49.700;10.770;2022-09-09T10:14:45;23.20;99.90
7704;DHT22;3894;49.700;10.770;2022-09-09T10:20:14;23.50;99.90
7704;DHT22;3894;49.700;10.770;2022-09-09T10:23:09;22.60;99.90
7704;DHT22;3894;49.700;10.770;2022-09-09T10:25:38;22.40;99.90
7704;DHT22;3894;49.700;10.770;2022-09-09T10:31:27;21.40;99.90
7704;DHT22;3894;49.700;10.770;2022-09-09T10:36:58;21.90;99.90
7704;DHT22;3894;49.700;10.770;2022-09-09T10:42:01;22.30;99.90
7704;DHT22;3894;49.700;10.770;2022-09-09T10:57:50;21.70;99.90
7704;DHT22;3894;49.700;10.770;2022-09-09T11:00:31;22.20;99.90
7704;DHT22;3894;49.700;10.770;2022-09-09T11:03:03;22.30;99.90
7704;DHT22;3894;49.700;10.770;2022-09-09T11:05:57;22.50;99.90
7704;DHT22;3894;49.700;10.770;2022-09-09T11:08:27;21.90;99.90
7704;DHT22;3894;49.700;10.770;2022-09-09T11:13:40;21.80;99.90
7704;DHT22;3894;49.700;10.770;2022-09-09T11:19:02;22.70;99.90
7704;DHT22;3894;49.700;10.770;2022-09-09T11:21:35;23.20;99.90
7704;DHT22;3894;49.700;10.770;2022-09-09T11:24:10;23.70;99.90
7704;DHT22;3894;49.700;10.770;2022-09-09T11:27:06;24.00;99.90
7704;DHT22;3894;49.700;10.770;2022-09-09T11:32:39;24.40;99.00
7704;DHT22;3894;49.700;10.770;2022-09-09T11:40:45;24.40;98.80
7704;DHT22;3894;49.700;10.770;2022-09-09T11:45:57;23.20;99.70
7704;DHT22;3894;49.700;10.770;2022-09-09T11:48:36;22.70;99.90
7704;DHT22;3894;49.700;10.770;2022-09-09T11:51:11;22.70;99.90
7704;DHT22;3894;49.700;10.770;2022-09-09T11:53:51;22.90;99.60
7704;DHT22;3894;49.700;10.770;2022-09-09T11:56:43;23.60;99.30
7704;DHT22;3894;49.700;10.770;2022-09-09T11:59:22;24.10;96.20
7704;DHT22;3894;49.700;10.770;2022-09-09T12:12:24;21.20;99.20
7704;DHT22;3894;49.700;10.770;2022-09-09T12:17:42;20.30;99.90
7704;DHT22;3894;49.700;10.770;2022-09-09T12:20:15;20.10;99.90
7704;DHT22;3894;49.700;10.770;2022-09-09T12:28:09;17.70;99.90
7704;DHT22;3894;49.700;10.770;2022-09-09T12:30:56;17.20;99.90
7704;DHT22;3894;49.700;10.770;2022-09-09T12:33:24;17.00;99.90
7704;DHT22;3894;49.700;10.770;2022-09-09T12:35:59;17.00;99.90
7704;DHT22;3894;49.700;10.770;2022-09-09T12:38:34;16.80;99.90
7704;DHT22;3894;49.700;10.770;2022-09-09T12:41:01;16.80;99.90
7704;DHT22;3894;49.700;10.770;2022-09-09T12:43:30;16.90;99.90
7704;DHT22;3894;49.700;10.770;2022-09-09T12:46:02;16.90;99.90
7704;DHT22;3894;49.700;10.770;2022-09-09T12:48:36;17.00;99.90
7704;DHT22;3894;49.700;10.770;2022-09-09T12:51:02;17.00;99.90
7704;DHT22;3894;49.700;10.770;2022-09-09T12:53:35;17.20;99.90
7704;DHT22;3894;49.700;10.770;2022-09-09T12:56:05;17.90;99.90
7704;DHT22;3894;49.700;10.770;2022-09-09T12:58:33;18.50;99.90
7704;DHT22;3894;49.700;10.770;2022-09-09T13:01:01;19.00;99.90
7704;DHT22;3894;49.700;10.770;2022-09-09T13:03:43;19.40;99.90
7704;DHT22;3894;49.700;10.770;2022-09-09T13:06:50;19.80;99.90
7704;DHT22;3894;49.700;10.770;2022-09-09T13:09:09;19.80;99.90
7704;DHT22;3894;49.700;10.770;2022-09-09T13:11:41;20.20;99.90
7704;DHT22;3894;49.700;10.770;2022-09-09T13:14:42;20.40;99.90
7704;DHT22;3894;49.700;10.770;2022-09-09T13:17:21;20.30;99.90
7704;DHT22;3894;49.700;10.770;2022-09-09T13:19:47;20.60;99.90
7704;DHT22;3894;49.700;10.770;2022-09-09T13:22:34;20.50;99.90
7704;DHT22;3894;49.700;10.770;2022-09-09T13:27:41;20.70;99.90
7704;DHT22;3894;49.700;10.770;2022-09-09T13:33:03;21.20;99.90
7704;DHT22;3894;49.700;10.770;2022-09-09T13:35:29;21.20;99.90
7704;DHT22;3894;49.700;10.770;2022-09-09T13:38:05;21.30;99.90
7704;DHT22;3894;49.700;10.770;2022-09-09T13:40:33;21.30;99.90
7704;DHT22;3894;49.700;10.770;2022-09-09T13:42:59;21.00;99.90
7704;DHT22;3894;49.700;10.770;2022-09-09T13:45:26;21.10;99.90
7704;DHT22;3894;49.700;10.770;2022-09-09T13:48:08;21.10;99.90
7704;DHT22;3894;49.700;10.770;2022-09-09T13:50:34;21.30;99.90
7704;DHT22;3894;49.700;10.770;2022-09-09T13:53:06;21.10;99.90
7704;DHT22;3894;49.700;10.770;2022-09-09T13:55:36;21.20;99.90
7704;DHT22;3894;49.700;10.770;2022-09-09T13:58:15;21.40;99.90
7704;DHT22;3894;49.700;10.770;2022-09-09T14:00:42;21.50;99.90
7704;DHT22;3894;49.700;10.770;2022-09-09T14:03:09;21.50;99.90
7704;DHT22;3894;49.700;10.770;2022-09-09T14:05:35;21.50;99.90
7704;DHT22;3894;49.700;10.770;2022-09-09T14:08:03;21.50;99.90
7704;DHT22;3894;49.700;10.770;2022-09-09T14:10:30;21.80;99.90
7704;DHT22;3894;49.700;10.770;2022-09-09T14:13:02;21.70;99.90
7704;DHT22;3894;49.700;10.770;2022-09-09T14:15:28;21.60;99.90
7704;DHT22;3894;49.700;10.770;2022-09-09T14:17:54;21.60;99.90
7704;DHT22;3894;49.700;10.770;2022-09-09T14:20:20;21.60;99.90
7704;DHT22;3894;49.700;10.770;2022-09-09T14:22:46;21.60;99.90
7704;DHT22;3894;49.700;10.770;2022-09-09T14:25:12;21.50;99.90
7704;DHT22;3894;49.700;10.770;2022-09-09T14:27:41;21.50;99.90
7704;DHT22;3894;49.700;10.770;2022-09-09T14:30:08;21.60;99.90
7704;DHT22;3894;49.700;10.770;2022-09-09T14:32:34;21.70;99.90
7704;DHT22;3894;49.700;10.770;2022-09-09T14:34:59;21.70;99.90
7704;DHT22;3894;49.700;10.770;2022-09-09T14:37:25;21.80;99.90
7704;DHT22;3894;49.700;10.770;2022-09-09T14:39:52;21.80;99.90
7704;DHT22;3894;49.700;10.770;2022-09-09T14:42:21;21.60;99.90
7704;DHT22;3894;49.700;10.770;2022-09-09T14:44:47;21.60;99.90
7704;DHT22;3894;49.700;10.770;2022-09-09T14:47:13;21.80;99.90
7704;DHT22;3894;49.700;10.770;2022-09-09T14:49:38;22.00;99.90
7704;DHT22;3894;49.700;10.770;2022-09-09T14:52:10;22.00;99.90
7704;DHT22;3894;49.700;10.770;2022-09-09T14:54:36;21.90;99.90
7704;DHT22;3894;49.700;10.770;2022-09-09T14:57:02;21.80;99.90
7704;DHT22;3894;49.700;10.770;2022-09-09T14:59:28;21.70;99.90
7704;DHT22;3894;49.700;10.770;2022-09-09T15:02:00;21.70;99.90
7704;DHT22;3894;49.700;10.770;2022-09-09T15:04:29;21.60;99.90
7704;DHT22;3894;49.700;10.770;2022-09-09T15:06:55;21.50;99.90
7704;DHT22;3894;49.700;10.770;2022-09-09T15:09:20;21.40;99.90
7704;DHT22;3894;49.700;10.770;2022-09-09T15:11:46;21.30;99.90
7704;DHT22;3894;49.700;10.770;2022-09-09T15:14:12;21.30;99.90
7704;DHT22;3894;49.700;10.770;2022-09-09T15:16:40;21.30;99.90
7704;DHT22;3894;49.700;10.770;2022-09-09T15:19:06;21.30;99.90
7704;DHT22;3894;49.700;10.770;2022-09-09T15:21:35;21.20;99.90
7704;DHT22;3894;49.700;10.770;2022-09-09T15:24:06;21.20;99.90
7704;DHT22;3894;49.700;10.770;2022-09-09T15:26:42;21.10;99.90
7704;DHT22;3894;49.700;10.770;2022-09-09T15:29:08;21.10;99.90
7704;DHT22;3894;49.700;10.770;2022-09-09T15:31:35;21.10;99.90
7704;DHT22;3894;49.700;10.770;2022-09-09T15:34:08;21.10;99.90
7704;DHT22;3894;49.700;10.770;2022-09-09T15:36:38;21.10;99.90
7704;DHT22;3894;49.700;10.770;2022-09-09T15:39:06;21.10;99.90
7704;DHT22;3894;49.700;10.770;2022-09-09T15:41:32;21.00;99.90
7704;DHT22;3894;49.700;10.770;2022-09-09T15:43:58;20.90;99.90
7704;DHT22;3894;49.700;10.770;2022-09-09T15:46:46;20.90;99.90
7704;DHT22;3894;49.700;10.770;2022-09-09T15:49:25;21.00;99.90
7704;DHT22;3894;49.700;10.770;2022-09-09T15:51:56;21.00;99.90
7704;DHT22;3894;49.700;10.770;2022-09-09T15:54:25;21.10;99.90
7704;DHT22;3894;49.700;10.770;2022-09-09T15:56:58;21.20;99.90
7704;DHT22;3894;49.700;10.770;2022-09-09T15:59:29;21.20;99.90
7704;DHT22;3894;49.700;10.770;2022-09-09T16:01:55;21.20;99.90
7704;DHT22;3894;49.700;10.770;2022-09-09T16:04:22;21.10;99.90
7704;DHT22;3894;49.700;10.770;2022-09-09T16:06:52;21.10;99.90
7704;DHT22;3894;49.700;10.770;2022-09-09T16:09:19;21.10;99.90
7704;DHT22;3894;49.700;10.770;2022-09-09T16:11:45;21.10;99.90
7704;DHT22;3894;49.700;10.770;2022-09-09T16:14:12;21.00;99.90
7704;DHT22;3894;49.700;10.770;2022-09-09T16:16:38;20.90;99.90
7704;DHT22;3894;49.700;10.770;2022-09-09T16:19:08;20.90;99.90
7704;DHT22;3894;49.700;10.770;2022-09-09T16:21:46;21.00;99.90
7704;DHT22;3894;49.700;10.770;2022-09-09T16:24:14;21.00;99.90
7704;DHT22;3894;49.700;10.770;2022-09-09T16:26:42;20.90;99.90
7704;DHT22;3894;49.700;10.770;2022-09-09T16:29:12;20.90;99.90
7704;DHT22;3894;49.700;10.770;2022-09-09T16:31:38;21.00;99.90
7704;DHT22;3894;49.700;10.770;2022-09-09T16:34:04;20.90;99.90
7704;DHT22;3894;49.700;10.770;2022-09-09T16:36:32;20.80;99.90
7704;DHT22;3894;49.700;10.770;2022-09-09T16:39:04;20.60;99.90
7704;DHT22;3894;49.700;10.770;2022-09-09T16:41:31;20.40;99.90
7704;DHT22;3894;49.700;10.770;2022-09-09T16:44:02;20.30;99.90
7704;DHT22;3894;49.700;10.770;2022-09-09T16:46:29;20.30;99.90
7704;DHT22;3894;49.700;10.770;2022-09-09T16:48:59;20.30;99.90
7704;DHT22;3894;49.700;10.770;2022-09-09T16:51:33;20.20;99.90
7704;DHT22;3894;49.700;10.770;2022-09-09T16:54:01;19.90;99.90
7704;DHT22;3894;49.700;10.770;2022-09-09T16:56:29;19.80;99.90
7704;DHT22;3894;49.700;10.770;2022-09-09T16:59:04;19.70;99.90
7704;DHT22;3894;49.700;10.770;2022-09-09T17:01:40;19.60;99.90
7704;DHT22;3894;49.700;10.770;2022-09-09T17:04:08;19.40;99.90
7704;DHT22;3894;49.700;10.770;2022-09-09T17:06:35;19.30;99.90
7704;DHT22;3894;49.700;10.770;2022-09-09T17:09:08;19.20;99.90
7704;DHT22;3894;49.700;10.770;2022-09-09T17:11:35;19.10;99.90
7704;DHT22;3894;49.700;10.770;2022-09-09T17:14:02;19.10;99.90
7704;DHT22;3894;49.700;10.770;2022-09-09T17:16:30;19.10;99.90
7704;DHT22;3894;49.700;10.770;2022-09-09T17:18:57;19.00;99.90
7704;DHT22;3894;49.700;10.770;2022-09-09T17:21:25;19.00;99.90
7704;DHT22;3894;49.700;10.770;2022-09-09T17:23:57;18.90;99.90
7704;DHT22;3894;49.700;10.770;2022-09-09T17:26:26;18.90;99.90
7704;DHT22;3894;49.700;10.770;2022-09-09T17:28:56;18.90;99.90
7704;DHT22;3894;49.700;10.770;2022-09-09T17:31:24;18.90;99.90
7704;DHT22;3894;49.700;10.770;2022-09-09T17:33:51;18.80;99.90
7704;DHT22;3894;49.700;10.770;2022-09-09T17:36:29;18.80;99.90
7704;DHT22;3894;49.700;10.770;2022-09-09T17:38:56;18.90;99.90
7704;DHT22;3894;49.700;10.770;2022-09-09T17:41:28;18.80;99.90
7704;DHT22;3894;49.700;10.770;2022-09-09T17:43:57;18.80;99.90
7704;DHT22;3894;49.700;10.770;2022-09-09T17:46:29;18.80;99.90
7704;DHT22;3894;49.700;10.770;2022-09-09T17:48:56;18.90;99.90
7704;DHT22;3894;49.700;10.770;2022-09-09T17:51:25;18.80;99.90
7704;DHT22;3894;49.700;10.770;2022-09-09T17:53:58;18.90;99.90
7704;DHT22;3894;49.700;10.770;2022-09-09T17:56:26;18.80;99.90
7704;DHT22;3894;49.700;10.770;2022-09-09T17:58:53;18.80;99.90
7704;DHT22;3894;49.700;10.770;2022-09-09T18:01:28;18.80;99.90
7704;DHT22;3894;49.700;10.770;2022-09-09T18:03:55;18.80;99.90
7704;DHT22;3894;49.700;10.770;2022-09-09T18:06:24;18.80;99.90
7704;DHT22;3894;49.700;10.770;2022-09-09T18:08:56;18.80;99.90
7704;DHT22;3894;49.700;10.770;2022-09-09T18:11:25;18.80;99.90
7704;DHT22;3894;49.700;10.770;2022-09-09T18:13:54;18.70;99.90
7704;DHT22;3894;49.700;10.770;2022-09-09T18:16:21;18.70;99.90
7704;DHT22;3894;49.700;10.770;2022-09-09T18:18:50;18.70;99.90
7704;DHT22;3894;49.700;10.770;2022-09-09T18:21:18;18.70;99.90
7704;DHT22;3894;49.700;10.770;2022-09-09T18:23:45;18.60;99.90
7704;DHT22;3894;49.700;10.770;2022-09-09T18:26:19;18.70;99.90
7704;DHT22;3894;49.700;10.770;2022-09-09T18:28:50;18.60;99.90